sensor_id;sensor_type;location;lat;lon;timestamp;temperature;humidity
3037;DHT22;1528;52.550;13.408;2023-04-24T00:01:54;14.20;29.80
3037;DHT22;1528;52.550;13.408;2023-04-24T00:04:42;14.20;29.90
3037;DHT22;1528;52.550;13.408;2023-04-24T00:07:28;14.10;30.10
3037;DHT22;1528;52.550;13.408;2023-04-24T00:10:14;14.10;30.40
3037;DHT22;1528;52.550;13.408;2023-04-24T00:13:00;14.10;31.30
3037;DHT22;1528;52.550;13.408;2023-04-24T00:15:45;14.10;30.40
3037;DHT22;1528;52.550;13.408;2023-04-24T00:18:31;14.20;30.40
3037;DHT22;1528;52.550;13.408;2023-04-24T00:21:18;14.20;30.40
3037;DHT22;1528;52.550;13.408;2023-04-24T00:24:04;14.20;30.40
3037;DHT22;1528;52.550;13.408;2023-04-24T00:26:50;14.10;30.60
3037;DHT22;1528;52.550;13.408;2023-04-24T00:29:36;14.10;30.80
3037;DHT22;1528;52.550;13.408;2023-04-24T00:32:21;14.10;31.10
3037;DHT22;1528;52.550;13.408;2023-04-24T00:35:07;14.10;31.10
3037;DHT22;1528;52.550;13.408;2023-04-24T00:37:54;14.20;31.00
3037;DHT22;1528;52.550;13.408;2023-04-24T00:40:40;14.20;30.80
3037;DHT22;1528;52.550;13.408;2023-04-24T00:43:26;14.20;31.00
3037;DHT22;1528;52.550;13.408;2023-04-24T00:46:12;14.30;30.80
3037;DHT22;1528;52.550;13.408;2023-04-24T00:48:59;14.20;31.00
3037;DHT22;1528;52.550;13.408;2023-04-24T00:51:44;14.10;31.30
3037;DHT22;1528;52.550;13.408;2023-04-24T00:54:31;14.10;31.70
3037;DHT22;1528;52.550;13.408;2023-04-24T00:57:17;14.10;31.30
3037;DHT22;1528;52.550;13.408;2023-04-24T01:00:04;14.10;31.40
3037;DHT22;1528;52.550;13.408;2023-04-24T01:02:58;14.00;31.80
3037;DHT22;1528;52.550;13.408;2023-04-24T01:05:44;14.00;32.10
3037;DHT22;1528;52.550;13.408;2023-04-24T01:08:30;14.00;32.20
3037;DHT22;1528;52.550;13.408;2023-04-24T01:11:18;14.10;32.30
3037;DHT22;1528;52.550;13.408;2023-04-24T01:14:03;14.10;32.30
3037;DHT22;1528;52.550;13.408;2023-04-24T01:16:49;14.10;32.20
3037;DHT22;1528;52.550;13.408;2023-04-24T01:19:34;14.10;32.20
3037;DHT22;1528;52.550;13.408;2023-04-24T01:22:22;14.10;32.30
3037;DHT22;1528;52.550;13.408;2023-04-24T01:25:08;14.20;32.10
3037;DHT22;1528;52.550;13.408;2023-04-24T01:27:54;14.20;32.20
3037;DHT22;1528;52.550;13.408;2023-04-24T01:30:40;14.10;32.10
3037;DHT22;1528;52.550;13.408;2023-04-24T01:33:26;14.20;32.20
3037;DHT22;1528;52.550;13.408;2023-04-24T01:36:11;14.20;32.30
3037;DHT22;1528;52.550;13.408;2023-04-24T01:38:58;14.20;32.00
3037;DHT22;1528;52.550;13.408;2023-04-24T01:41:44;14.30;32.20
3037;DHT22;1528;52.550;13.408;2023-04-24T01:44:30;14.30;32.20
3037;DHT22;1528;52.550;13.408;2023-04-24T01:47:16;14.30;32.10
3037;DHT22;1528;52.550;13.408;2023-04-24T01:50:02;14.30;31.90
3037;DHT22;1528;52.550;13.408;2023-04-24T01:52:48;14.30;32.10
3037;DHT22;1528;52.550;13.408;2023-04-24T01:55:35;14.40;32.20
3037;DHT22;1528;52.550;13.408;2023-04-24T01:58:21;14.40;32.00
3037;DHT22;1528;52.550;13.408;2023-04-24T02:01:06;14.40;32.10
3037;DHT22;1528;52.550;13.408;2023-04-24T02:03:52;14.40;32.10
3037;DHT22;1528;52.550;13.408;2023-04-24T02:06:38;14.40;32.30
3037;DHT22;1528;52.550;13.408;2023-04-24T02:09:23;14.40;32.30
3037;DHT22;1528;52.550;13.408;2023-04-24T02:12:10;14.30;32.40
3037;DHT22;1528;52.550;13.408;2023-04-24T02:14:56;14.40;32.20
3037;DHT22;1528;52.550;13.408;2023-04-24T02:17:41;14.20;32.60
3037;DHT22;1528;52.550;13.408;2023-04-24T02:20:27;14.10;32.90
3037;DHT22;1528;52.550;13.408;2023-04-24T02:23:13;14.20;32.80
3037;DHT22;1528;52.550;13.408;2023-04-24T02:25:58;14.20;33.00
3037;DHT22;1528;52.550;13.408;2023-04-24T02:28:46;14.20;32.80
3037;DHT22;1528;52.550;13.408;2023-04-24T02:31:31;14.20;33.20
3037;DHT22;1528;52.550;13.408;2023-04-24T02:34:17;14.20;33.20
3037;DHT22;1528;52.550;13.408;2023-04-24T02:37:02;14.10;33.30
3037;DHT22;1528;52.550;13.408;2023-04-24T02:39:48;14.10;33.40
3037;DHT22;1528;52.550;13.408;2023-04-24T02:42:34;14.20;33.30
3037;DHT22;1528;52.550;13.408;2023-04-24T02:45:21;14.20;33.30
3037;DHT22;1528;52.550;13.408;2023-04-24T02:48:06;14.10;33.50
3037;DHT22;1528;52.550;13.408;2023-04-24T02:50:52;14.20;33.40
3037;DHT22;1528;52.550;13.408;2023-04-24T02:53:37;14.20;33.40
3037;DHT22;1528;52.550;13.408;2023-04-24T02:56:23;14.30;33.40
3037;DHT22;1528;52.550;13.408;2023-04-24T02:59:09;14.30;33.50
3037;DHT22;1528;52.550;13.408;2023-04-24T03:01:56;14.30;33.30
3037;DHT22;1528;52.550;13.408;2023-04-24T03:04:42;14.30;33.20
3037;DHT22;1528;52.550;13.408;2023-04-24T03:07:28;14.30;33.20
3037;DHT22;1528;52.550;13.408;2023-04-24T03:10:14;14.30;33.40
3037;DHT22;1528;52.550;13.408;2023-04-24T03:12:59;14.20;33.40
3037;DHT22;1528;52.550;13.408;2023-04-24T03:15:45;14.30;34.00
3037;DHT22;1528;52.550;13.408;2023-04-24T03:18:32;14.20;33.40
3037;DHT22;1528;52.550;13.408;2023-04-24T03:21:17;14.30;33.20
3037;DHT22;1528;52.550;13.408;2023-04-24T03:24:03;14.30;33.20
3037;DHT22;1528;52.550;13.408;2023-04-24T03:26:49;14.40;33.10
3037;DHT22;1528;52.550;13.408;2023-04-24T03:29:34;14.40;33.40
3037;DHT22;1528;52.550;13.408;2023-04-24T03:32:20;14.30;33.10
3037;DHT22;1528;52.550;13.408;2023-04-24T03:35:08;14.30;33.30
3037;DHT22;1528;52.550;13.408;2023-04-24T03:37:53;14.40;32.90
3037;DHT22;1528;52.550;13.408;2023-04-24T03:40:39;14.30;33.40
3037;DHT22;1528;52.550;13.408;2023-04-24T03:43:25;14.30;33.50
3037;DHT22;1528;52.550;13.408;2023-04-24T03:46:11;14.40;33.40
3037;DHT22;1528;52.550;13.408;2023-04-24T03:48:57;14.40;33.40
3037;DHT22;1528;52.550;13.408;2023-04-24T03:51:44;14.40;33.50
3037;DHT22;1528;52.550;13.408;2023-04-24T03:54:29;14.30;33.30
3037;DHT22;1528;52.550;13.408;2023-04-24T03:57:15;14.30;33.60
3037;DHT22;1528;52.550;13.408;2023-04-24T04:00:00;14.40;33.60
3037;DHT22;1528;52.550;13.408;2023-04-24T04:02:50;14.40;33.50
3037;DHT22;1528;52.550;13.408;2023-04-24T04:05:36;14.40;33.60
3037;DHT22;1528;52.550;13.408;2023-04-24T04:08:23;14.30;33.50
3037;DHT22;1528;52.550;13.408;2023-04-24T04:11:08;14.40;33.30
3037;DHT22;1528;52.550;13.408;2023-04-24T04:13:54;14.40;33.10
3037;DHT22;1528;52.550;13.408;2023-04-24T04:16:40;14.40;33.30
3037;DHT22;1528;52.550;13.408;2023-04-24T04:19:26;14.30;33.50
3037;DHT22;1528;52.550;13.408;2023-04-24T04:22:12;14.40;33.30
3037;DHT22;1528;52.550;13.408;2023-04-24T04:24:59;14.40;33.30
3037;DHT22;1528;52.550;13.408;2023-04-24T04:27:44;14.50;33.10
3037;DHT22;1528;52.550;13.408;2023-04-24T04:30:32;14.50;33.00
3037;DHT22;1528;52.550;13.408;2023-04-24T04:33:17;14.40;33.40
3037;DHT22;1528;52.550;13.408;2023-04-24T04:36:03;14.40;33.40
3037;DHT22;1528;52.550;13.408;2023-04-24T04:38:49;14.50;33.00
3037;DHT22;1528;52.550;13.408;2023-04-24T04:41:36;14.50;33.00
3037;DHT22;1528;52.550;13.408;2023-04-24T04:44:24;14.50;33.20
3037;DHT22;1528;52.550;13.408;2023-04-24T04:47:12;14.50;33.00
3037;DHT22;1528;52.550;13.408;2023-04-24T04:49:57;14.50;32.90
3037;DHT22;1528;52.550;13.408;2023-04-24T04:52:43;14.60;33.30
3037;DHT22;1528;52.550;13.408;2023-04-24T04:55:28;14.50;32.90
3037;DHT22;1528;52.550;13.408;2023-04-24T04:58:15;14.50;32.70
3037;DHT22;1528;52.550;13.408;2023-04-24T05:01:01;14.60;32.70
3037;DHT22;1528;52.550;13.408;2023-04-24T05:03:46;14.60;32.60
3037;DHT22;1528;52.550;13.408;2023-04-24T05:06:32;14.70;32.10
3037;DHT22;1528;52.550;13.408;2023-04-24T05:09:17;14.40;32.70
3037;DHT22;1528;52.550;13.408;2023-04-24T05:12:03;14.60;32.30
3037;DHT22;1528;52.550;13.408;2023-04-24T05:14:50;14.60;32.20
3037;DHT22;1528;52.550;13.408;2023-04-24T05:17:35;14.80;31.60
3037;DHT22;1528;52.550;13.408;2023-04-24T05:20:21;14.60;32.10
3037;DHT22;1528;52.550;13.408;2023-04-24T05:23:07;14.60;31.70
3037;DHT22;1528;52.550;13.408;2023-04-24T05:25:53;14.70;31.90
3037;DHT22;1528;52.550;13.408;2023-04-24T05:28:38;14.70;31.90
3037;DHT22;1528;52.550;13.408;2023-04-24T05:31:26;14.70;32.00
3037;DHT22;1528;52.550;13.408;2023-04-24T05:34:11;14.70;32.00
3037;DHT22;1528;52.550;13.408;2023-04-24T05:36:57;14.70;32.10
3037;DHT22;1528;52.550;13.408;2023-04-24T05:39:42;14.80;31.50
3037;DHT22;1528;52.550;13.408;2023-04-24T05:42:28;14.80;31.40
3037;DHT22;1528;52.550;13.408;2023-04-24T05:45:13;14.80;31.60
3037;DHT22;1528;52.550;13.408;2023-04-24T05:48:02;14.90;30.90
3037;DHT22;1528;52.550;13.408;2023-04-24T05:50:47;14.90;30.60
3037;DHT22;1528;52.550;13.408;2023-04-24T05:53:33;15.00;30.30
3037;DHT22;1528;52.550;13.408;2023-04-24T05:56:19;15.00;30.00
3037;DHT22;1528;52.550;13.408;2023-04-24T05:59:05;15.00;30.30
3037;DHT22;1528;52.550;13.408;2023-04-24T06:01:51;14.90;29.90
3037;DHT22;1528;52.550;13.408;2023-04-24T06:04:38;14.90;30.00
3037;DHT22;1528;52.550;13.408;2023-04-24T06:07:23;15.00;29.60
3037;DHT22;1528;52.550;13.408;2023-04-24T06:10:10;14.90;29.70
3037;DHT22;1528;52.550;13.408;2023-04-24T06:12:55;14.90;29.80
3037;DHT22;1528;52.550;13.408;2023-04-24T06:15:44;15.10;29.30
3037;DHT22;1528;52.550;13.408;2023-04-24T06:18:30;14.90;29.60
3037;DHT22;1528;52.550;13.408;2023-04-24T06:21:17;15.00;29.50
3037;DHT22;1528;52.550;13.408;2023-04-24T06:24:03;15.10;29.30
3037;DHT22;1528;52.550;13.408;2023-04-24T06:26:48;15.10;29.40
3037;DHT22;1528;52.550;13.408;2023-04-24T06:29:35;15.10;28.90
3037;DHT22;1528;52.550;13.408;2023-04-24T06:32:22;15.20;29.10
3037;DHT22;1528;52.550;13.408;2023-04-24T06:35:08;15.30;28.90
3037;DHT22;1528;52.550;13.408;2023-04-24T06:37:57;15.30;28.70
3037;DHT22;1528;52.550;13.408;2023-04-24T06:40:42;15.30;28.40
3037;DHT22;1528;52.550;13.408;2023-04-24T06:43:28;15.30;28.00
3037;DHT22;1528;52.550;13.408;2023-04-24T06:46:13;15.40;27.70
3037;DHT22;1528;52.550;13.408;2023-04-24T06:48:59;15.40;27.80
3037;DHT22;1528;52.550;13.408;2023-04-24T06:51:45;15.50;27.30
3037;DHT22;1528;52.550;13.408;2023-04-24T06:54:32;15.60;27.50
3037;DHT22;1528;52.550;13.408;2023-04-24T06:57:18;15.80;28.10
3037;DHT22;1528;52.550;13.408;2023-04-24T07:00:06;15.80;26.80
3037;DHT22;1528;52.550;13.408;2023-04-24T07:02:53;15.90;26.20
3037;DHT22;1528;52.550;13.408;2023-04-24T07:05:38;15.80;26.20
3037;DHT22;1528;52.550;13.408;2023-04-24T07:08:24;15.90;25.60
3037;DHT22;1528;52.550;13.408;2023-04-24T07:11:11;15.80;26.20
3037;DHT22;1528;52.550;13.408;2023-04-24T07:13:56;15.80;25.00
3037;DHT22;1528;52.550;13.408;2023-04-24T07:16:42;15.90;25.00
3037;DHT22;1528;52.550;13.408;2023-04-24T07:19:28;15.90;25.20
3037;DHT22;1528;52.550;13.408;2023-04-24T07:22:13;16.00;24.70
3037;DHT22;1528;52.550;13.408;2023-04-24T07:25:01;16.00;24.00
3037;DHT22;1528;52.550;13.408;2023-04-24T07:27:48;16.00;23.60
3037;DHT22;1528;52.550;13.408;2023-04-24T07:30:34;16.10;24.00
3037;DHT22;1528;52.550;13.408;2023-04-24T07:33:19;16.20;23.30
3037;DHT22;1528;52.550;13.408;2023-04-24T07:36:05;16.30;21.90
3037;DHT22;1528;52.550;13.408;2023-04-24T07:38:51;16.20;21.60
3037;DHT22;1528;52.550;13.408;2023-04-24T07:41:36;16.20;21.80
3037;DHT22;1528;52.550;13.408;2023-04-24T07:44:23;16.30;20.40
3037;DHT22;1528;52.550;13.408;2023-04-24T07:47:09;16.20;20.10
3037;DHT22;1528;52.550;13.408;2023-04-24T07:49:55;16.30;20.60
3037;DHT22;1528;52.550;13.408;2023-04-24T07:52:40;16.50;19.50
3037;DHT22;1528;52.550;13.408;2023-04-24T07:55:26;16.50;19.90
3037;DHT22;1528;52.550;13.408;2023-04-24T07:58:12;16.70;19.20
3037;DHT22;1528;52.550;13.408;2023-04-24T08:00:59;16.70;19.60
3037;DHT22;1528;52.550;13.408;2023-04-24T08:03:44;16.90;19.20
3037;DHT22;1528;52.550;13.408;2023-04-24T08:06:30;17.00;18.90
3037;DHT22;1528;52.550;13.408;2023-04-24T08:09:16;17.20;18.40
3037;DHT22;1528;52.550;13.408;2023-04-24T08:12:01;17.30;19.00
3037;DHT22;1528;52.550;13.408;2023-04-24T08:14:47;17.30;19.10
3037;DHT22;1528;52.550;13.408;2023-04-24T08:17:35;17.60;19.20
3037;DHT22;1528;52.550;13.408;2023-04-24T08:20:20;17.60;18.80
3037;DHT22;1528;52.550;13.408;2023-04-24T08:23:06;17.70;18.10
3037;DHT22;1528;52.550;13.408;2023-04-24T08:25:52;17.80;17.40
3037;DHT22;1528;52.550;13.408;2023-04-24T08:28:38;17.90;17.40
3037;DHT22;1528;52.550;13.408;2023-04-24T08:31:23;17.80;17.00
3037;DHT22;1528;52.550;13.408;2023-04-24T08:34:11;17.90;17.00
3037;DHT22;1528;52.550;13.408;2023-04-24T08:36:57;18.10;16.70
3037;DHT22;1528;52.550;13.408;2023-04-24T08:39:43;18.10;16.60
3037;DHT22;1528;52.550;13.408;2023-04-24T08:42:28;18.50;16.20
3037;DHT22;1528;52.550;13.408;2023-04-24T08:45:17;18.80;15.90
3037;DHT22;1528;52.550;13.408;2023-04-24T08:48:04;19.10;15.30
3037;DHT22;1528;52.550;13.408;2023-04-24T08:50:53;19.20;14.00
3037;DHT22;1528;52.550;13.408;2023-04-24T08:53:39;19.00;13.90
3037;DHT22;1528;52.550;13.408;2023-04-24T08:56:25;18.70;14.50
3037;DHT22;1528;52.550;13.408;2023-04-24T08:59:11;18.90;13.30
3037;DHT22;1528;52.550;13.408;2023-04-24T09:01:57;18.80;13.30
3037;DHT22;1528;52.550;13.408;2023-04-24T09:04:43;18.80;12.70
3037;DHT22;1528;52.550;13.408;2023-04-24T09:07:33;18.60;12.90
3037;DHT22;1528;52.550;13.408;2023-04-24T09:10:21;18.50;13.30
3037;DHT22;1528;52.550;13.408;2023-04-24T09:13:08;18.70;13.30
3037;DHT22;1528;52.550;13.408;2023-04-24T09:15:54;19.00;12.60
3037;DHT22;1528;52.550;13.408;2023-04-24T09:18:41;19.20;11.70
3037;DHT22;1528;52.550;13.408;2023-04-24T09:21:31;19.30;11.90
3037;DHT22;1528;52.550;13.408;2023-04-24T09:24:20;19.40;11.40
3037;DHT22;1528;52.550;13.408;2023-04-24T09:27:07;19.40;11.70
3037;DHT22;1528;52.550;13.408;2023-04-24T09:29:56;18.90;12.50
3037;DHT22;1528;52.550;13.408;2023-04-24T09:32:41;19.00;13.90
3037;DHT22;1528;52.550;13.408;2023-04-24T09:35:27;19.10;13.30
3037;DHT22;1528;52.550;13.408;2023-04-24T09:38:13;19.20;13.60
3037;DHT22;1528;52.550;13.408;2023-04-24T09:41:01;19.10;14.50
3037;DHT22;1528;52.550;13.408;2023-04-24T09:43:48;19.10;14.80
3037;DHT22;1528;52.550;13.408;2023-04-24T09:46:34;19.20;14.70
3037;DHT22;1528;52.550;13.408;2023-04-24T09:49:22;19.10;14.80
3037;DHT22;1528;52.550;13.408;2023-04-24T09:52:10;19.20;14.90
3037;DHT22;1528;52.550;13.408;2023-04-24T09:54:56;19.30;15.50
3037;DHT22;1528;52.550;13.408;2023-04-24T09:57:50;19.20;16.30
3037;DHT22;1528;52.550;13.408;2023-04-24T10:00:36;19.40;16.40
3037;DHT22;1528;52.550;13.408;2023-04-24T10:03:24;19.80;16.00
3037;DHT22;1528;52.550;13.408;2023-04-24T10:06:12;19.80;15.40
3037;DHT22;1528;52.550;13.408;2023-04-24T10:08:58;19.90;14.80
3037;DHT22;1528;52.550;13.408;2023-04-24T10:11:46;20.00;14.50
3037;DHT22;1528;52.550;13.408;2023-04-24T10:14:33;20.00;15.00
3037;DHT22;1528;52.550;13.408;2023-04-24T10:17:19;20.10;14.80
3037;DHT22;1528;52.550;13.408;2023-04-24T10:20:06;20.60;14.50
3037;DHT22;1528;52.550;13.408;2023-04-24T10:22:53;21.00;13.70
3037;DHT22;1528;52.550;13.408;2023-04-24T10:25:39;21.30;13.00
3037;DHT22;1528;52.550;13.408;2023-04-24T10:28:25;21.40;12.30
3037;DHT22;1528;52.550;13.408;2023-04-24T10:31:13;21.60;12.10
3037;DHT22;1528;52.550;13.408;2023-04-24T10:33:59;21.50;11.90
3037;DHT22;1528;52.550;13.408;2023-04-24T10:36:49;21.40;12.40
3037;DHT22;1528;52.550;13.408;2023-04-24T10:39:36;21.00;13.00
3037;DHT22;1528;52.550;13.408;2023-04-24T10:42:27;21.00;12.60
3037;DHT22;1528;52.550;13.408;2023-04-24T10:45:16;20.70;12.30
3037;DHT22;1528;52.550;13.408;2023-04-24T10:48:05;20.40;13.00
3037;DHT22;1528;52.550;13.408;2023-04-24T10:50:54;20.40;13.40
3037;DHT22;1528;52.550;13.408;2023-04-24T10:53:40;20.40;12.50
3037;DHT22;1528;52.550;13.408;2023-04-24T10:56:26;20.60;12.70
3037;DHT22;1528;52.550;13.408;2023-04-24T10:59:24;20.80;12.30
3037;DHT22;1528;52.550;13.408;2023-04-24T11:02:09;20.90;12.80
3037;DHT22;1528;52.550;13.408;2023-04-24T11:04:56;21.10;11.90
3037;DHT22;1528;52.550;13.408;2023-04-24T11:08:10;21.20;11.70
3037;DHT22;1528;52.550;13.408;2023-04-24T11:11:02;21.30;12.20
3037;DHT22;1528;52.550;13.408;2023-04-24T11:14:05;21.30;11.50
3037;DHT22;1528;52.550;13.408;2023-04-24T11:16:52;21.90;10.40
3037;DHT22;1528;52.550;13.408;2023-04-24T11:19:39;22.10;10.40
3037;DHT22;1528;52.550;13.408;2023-04-24T11:22:28;22.20;10.80
3037;DHT22;1528;52.550;13.408;2023-04-24T11:29:06;23.10;9.20
3037;DHT22;1528;52.550;13.408;2023-04-24T11:31:52;22.80;9.00
3037;DHT22;1528;52.550;13.408;2023-04-24T11:34:38;22.60;9.80
3037;DHT22;1528;52.550;13.408;2023-04-24T11:37:27;22.20;9.50
3037;DHT22;1528;52.550;13.408;2023-04-24T11:40:14;22.00;11.10
3037;DHT22;1528;52.550;13.408;2023-04-24T11:43:00;21.70;11.90
3037;DHT22;1528;52.550;13.408;2023-04-24T11:45:48;21.40;11.40
3037;DHT22;1528;52.550;13.408;2023-04-24T11:48:34;21.10;11.20
3037;DHT22;1528;52.550;13.408;2023-04-24T11:51:24;20.80;12.50
3037;DHT22;1528;52.550;13.408;2023-04-24T11:54:11;20.50;13.60
3037;DHT22;1528;52.550;13.408;2023-04-24T11:56:57;20.60;14.50
3037;DHT22;1528;52.550;13.408;2023-04-24T11:59:43;20.80;13.00
3037;DHT22;1528;52.550;13.408;2023-04-24T12:02:28;20.70;11.90
3037;DHT22;1528;52.550;13.408;2023-04-24T12:05:19;21.40;11.80
3037;DHT22;1528;52.550;13.408;2023-04-24T12:08:05;23.20;11.00
3037;DHT22;1528;52.550;13.408;2023-04-24T12:10:52;26.50;7.30
3037;DHT22;1528;52.550;13.408;2023-04-24T12:13:38;31.20;1.80
3037;DHT22;1528;52.550;13.408;2023-04-24T12:16:25;33.80;1.00
3037;DHT22;1528;52.550;13.408;2023-04-24T12:19:11;35.40;1.00
3037;DHT22;1528;52.550;13.408;2023-04-24T12:22:00;37.90;1.00
3037;DHT22;1528;52.550;13.408;2023-04-24T12:24:56;36.80;1.00
3037;DHT22;1528;52.550;13.408;2023-04-24T12:27:44;35.60;1.00
3037;DHT22;1528;52.550;13.408;2023-04-24T12:30:31;33.40;1.00
3037;DHT22;1528;52.550;13.408;2023-04-24T12:33:17;31.60;1.00
3037;DHT22;1528;52.550;13.408;2023-04-24T12:36:04;29.80;1.00
3037;DHT22;1528;52.550;13.408;2023-04-24T12:38:52;28.20;1.00
3037;DHT22;1528;52.550;13.408;2023-04-24T12:41:38;26.60;2.00
3037;DHT22;1528;52.550;13.408;2023-04-24T12:44:35;26.60;3.80
3037;DHT22;1528;52.550;13.408;2023-04-24T12:47:21;26.40;2.20
3037;DHT22;1528;52.550;13.408;2023-04-24T12:50:07;26.00;2.40
3037;DHT22;1528;52.550;13.408;2023-04-24T12:52:53;27.30;1.00
3037;DHT22;1528;52.550;13.408;2023-04-24T12:55:38;27.90;1.00
3037;DHT22;1528;52.550;13.408;2023-04-24T12:58:24;27.60;1.00
3037;DHT22;1528;52.550;13.408;2023-04-24T13:01:11;26.80;1.00
3037;DHT22;1528;52.550;13.408;2023-04-24T13:03:56;25.80;1.00
3037;DHT22;1528;52.550;13.408;2023-04-24T13:06:42;25.10;1.00
3037;DHT22;1528;52.550;13.408;2023-04-24T13:09:28;24.40;1.00
3037;DHT22;1528;52.550;13.408;2023-04-24T13:12:13;23.90;1.20
3037;DHT22;1528;52.550;13.408;2023-04-24T13:14:59;23.20;2.70
3037;DHT22;1528;52.550;13.408;2023-04-24T13:17:46;23.00;3.10
3037;DHT22;1528;52.550;13.408;2023-04-24T13:20:32;22.20;4.20
3037;DHT22;1528;52.550;13.408;2023-04-24T13:23:19;22.10;4.10
3037;DHT22;1528;52.550;13.408;2023-04-24T13:26:05;21.60;5.10
3037;DHT22;1528;52.550;13.408;2023-04-24T13:28:51;21.70;5.00
3037;DHT22;1528;52.550;13.408;2023-04-24T13:31:37;21.70;4.40
3037;DHT22;1528;52.550;13.408;2023-04-24T13:34:25;21.60;2.60
3037;DHT22;1528;52.550;13.408;2023-04-24T13:37:11;21.40;1.00
3037;DHT22;1528;52.550;13.408;2023-04-24T13:39:56;21.20;2.00
3037;DHT22;1528;52.550;13.408;2023-04-24T13:42:43;20.60;6.30
3037;DHT22;1528;52.550;13.408;2023-04-24T13:45:28;20.60;8.50
3037;DHT22;1528;52.550;13.408;2023-04-24T13:48:14;20.50;8.40
3037;DHT22;1528;52.550;13.408;2023-04-24T13:51:01;20.40;6.50
3037;DHT22;1528;52.550;13.408;2023-04-24T13:53:46;20.20;5.80
3037;DHT22;1528;52.550;13.408;2023-04-24T13:56:32;19.90;7.00
3037;DHT22;1528;52.550;13.408;2023-04-24T13:59:18;19.50;7.60
3037;DHT22;1528;52.550;13.408;2023-04-24T14:02:04;19.70;7.30
3037;DHT22;1528;52.550;13.408;2023-04-24T14:04:49;20.10;5.60
3037;DHT22;1528;52.550;13.408;2023-04-24T14:07:37;20.60;2.80
3037;DHT22;1528;52.550;13.408;2023-04-24T14:10:22;20.20;1.60
3037;DHT22;1528;52.550;13.408;2023-04-24T14:13:07;20.00;1.60
3037;DHT22;1528;52.550;13.408;2023-04-24T14:15:53;20.00;1.80
3037;DHT22;1528;52.550;13.408;2023-04-24T14:18:38;20.30;1.30
3037;DHT22;1528;52.550;13.408;2023-04-24T14:21:24;20.50;1.20
3037;DHT22;1528;52.550;13.408;2023-04-24T14:24:11;20.50;1.00
3037;DHT22;1528;52.550;13.408;2023-04-24T14:26:57;20.30;1.00
3037;DHT22;1528;52.550;13.408;2023-04-24T14:29:43;20.10;1.00
3037;DHT22;1528;52.550;13.408;2023-04-24T14:32:29;19.70;1.00
3037;DHT22;1528;52.550;13.408;2023-04-24T14:35:14;19.80;1.20
3037;DHT22;1528;52.550;13.408;2023-04-24T14:38:00;23.90;1.00
3037;DHT22;1528;52.550;13.408;2023-04-24T14:40:47;28.30;1.00
3037;DHT22;1528;52.550;13.408;2023-04-24T14:43:33;31.70;1.00
3037;DHT22;1528;52.550;13.408;2023-04-24T14:46:19;33.30;1.00
3037;DHT22;1528;52.550;13.408;2023-04-24T14:49:05;34.30;1.00
3037;DHT22;1528;52.550;13.408;2023-04-24T14:51:53;35.20;1.00
3037;DHT22;1528;52.550;13.408;2023-04-24T14:54:39;36.50;1.00
3037;DHT22;1528;52.550;13.408;2023-04-24T14:57:26;36.50;1.00
3037;DHT22;1528;52.550;13.408;2023-04-24T15:00:12;32.60;1.00
3037;DHT22;1528;52.550;13.408;2023-04-24T15:02:58;28.60;1.00
3037;DHT22;1528;52.550;13.408;2023-04-24T15:05:43;24.70;1.00
3037;DHT22;1528;52.550;13.408;2023-04-24T15:08:29;23.30;1.00
3037;DHT22;1528;52.550;13.408;2023-04-24T15:11:15;24.80;1.00
3037;DHT22;1528;52.550;13.408;2023-04-24T15:14:02;24.80;1.00
3037;DHT22;1528;52.550;13.408;2023-04-24T15:16:47;23.80;1.00
3037;DHT22;1528;52.550;13.408;2023-04-24T15:19:33;24.40;1.00
3037;DHT22;1528;52.550;13.408;2023-04-24T15:22:19;25.50;1.00
3037;DHT22;1528;52.550;13.408;2023-04-24T15:25:05;25.00;1.00
3037;DHT22;1528;52.550;13.408;2023-04-24T15:27:50;25.60;1.00
3037;DHT22;1528;52.550;13.408;2023-04-24T15:30:38;25.00;1.00
3037;DHT22;1528;52.550;13.408;2023-04-24T15:33:23;23.70;1.00
3037;DHT22;1528;52.550;13.408;2023-04-24T15:36:10;22.30;1.00
3037;DHT22;1528;52.550;13.408;2023-04-24T15:38:55;20.70;1.00
3037;DHT22;1528;52.550;13.408;2023-04-24T15:41:41;19.90;1.00
3037;DHT22;1528;52.550;13.408;2023-04-24T15:44:27;19.40;1.00
3037;DHT22;1528;52.550;13.408;2023-04-24T15:47:14;19.20;1.00
3037;DHT22;1528;52.550;13.408;2023-04-24T15:49:59;19.10;1.50
3037;DHT22;1528;52.550;13.408;2023-04-24T15:52:45;19.20;1.70
3037;DHT22;1528;52.550;13.408;2023-04-24T15:55:30;19.30;1.20
3037;DHT22;1528;52.550;13.408;2023-04-24T15:58:17;19.30;1.80
3037;DHT22;1528;52.550;13.408;2023-04-24T16:01:03;19.30;1.00
3037;DHT22;1528;52.550;13.408;2023-04-24T16:03:50;19.30;1.20
3037;DHT22;1528;52.550;13.408;2023-04-24T16:06:35;19.00;1.50
3037;DHT22;1528;52.550;13.408;2023-04-24T16:09:20;18.80;1.60
3037;DHT22;1528;52.550;13.408;2023-04-24T16:12:06;18.60;1.80
3037;DHT22;1528;52.550;13.408;2023-04-24T16:14:52;18.50;2.60
3037;DHT22;1528;52.550;13.408;2023-04-24T16:17:38;18.50;2.30
3037;DHT22;1528;52.550;13.408;2023-04-24T16:20:25;18.60;3.10
3037;DHT22;1528;52.550;13.408;2023-04-24T16:23:11;18.70;2.70
3037;DHT22;1528;52.550;13.408;2023-04-24T16:25:58;18.70;3.60
3037;DHT22;1528;52.550;13.408;2023-04-24T16:28:43;18.60;2.60
3037;DHT22;1528;52.550;13.408;2023-04-24T16:31:29;18.70;3.00
3037;DHT22;1528;52.550;13.408;2023-04-24T16:34:15;18.50;2.40
3037;DHT22;1528;52.550;13.408;2023-04-24T16:37:02;18.40;2.90
3037;DHT22;1528;52.550;13.408;2023-04-24T16:39:48;18.40;3.60
3037;DHT22;1528;52.550;13.408;2023-04-24T16:42:34;18.10;3.70
3037;DHT22;1528;52.550;13.408;2023-04-24T16:45:19;18.00;4.80
3037;DHT22;1528;52.550;13.408;2023-04-24T16:48:05;17.60;5.90
3037;DHT22;1528;52.550;13.408;2023-04-24T16:50:54;17.20;8.00
3037;DHT22;1528;52.550;13.408;2023-04-24T16:53:42;16.80;9.50
3037;DHT22;1528;52.550;13.408;2023-04-24T16:56:27;16.40;10.90
3037;DHT22;1528;52.550;13.408;2023-04-24T16:59:13;16.50;11.30
3037;DHT22;1528;52.550;13.408;2023-04-24T17:01:59;16.20;12.30
3037;DHT22;1528;52.550;13.408;2023-04-24T17:04:44;15.90;12.30
3037;DHT22;1528;52.550;13.408;2023-04-24T17:07:30;15.70;12.50
3037;DHT22;1528;52.550;13.408;2023-04-24T17:10:17;15.60;13.00
3037;DHT22;1528;52.550;13.408;2023-04-24T17:13:03;15.40;13.20
3037;DHT22;1528;52.550;13.408;2023-04-24T17:15:49;15.10;14.30
3037;DHT22;1528;52.550;13.408;2023-04-24T17:18:34;15.00;15.40
3037;DHT22;1528;52.550;13.408;2023-04-24T17:21:20;14.90;16.10
3037;DHT22;1528;52.550;13.408;2023-04-24T17:24:06;14.90;16.50
3037;DHT22;1528;52.550;13.408;2023-04-24T17:26:53;14.90;17.00
3037;DHT22;1528;52.550;13.408;2023-04-24T17:29:40;14.70;17.90
3037;DHT22;1528;52.550;13.408;2023-04-24T17:32:25;14.70;18.40
3037;DHT22;1528;52.550;13.408;2023-04-24T17:35:11;14.80;18.90
3037;DHT22;1528;52.550;13.408;2023-04-24T17:37:56;14.50;19.00
3037;DHT22;1528;52.550;13.408;2023-04-24T17:40:42;14.30;19.50
3037;DHT22;1528;52.550;13.408;2023-04-24T17:43:30;14.20;20.00
3037;DHT22;1528;52.550;13.408;2023-04-24T17:46:16;14.10;20.20
3037;DHT22;1528;52.550;13.408;2023-04-24T17:49:01;13.90;19.20
3037;DHT22;1528;52.550;13.408;2023-04-24T17:51:47;13.90;18.90
3037;DHT22;1528;52.550;13.408;2023-04-24T17:54:33;13.80;18.80
3037;DHT22;1528;52.550;13.408;2023-04-24T17:57:18;13.70;19.10